BCE weather

Bryce Canyon Airport
Bryce Canyon, Utah, United States

Public forecast

Using degrees Fahrenheit for public forecast. Weather courtesy of forecast.io.

METAR (pilot weather report)

Retrieved 2019/06/26 06:53 UTC (49 minutes ago):

KBCE 260653Z AUTO VRB04KT 10SM CLR 09/M01 A3019 RMK AO2 SLP111 T00891011 402500033

TAF (pilot weather forecast)

Retrieved 2019/06/26 06:22 UTC (1 hour ago):

TAF KBCE 260520Z 2606/2706 26007KT P6SM FEW200 FM261800 18015G25KT P6SM FEW200 FM270300 21007KT P6SM SKC